首页
METAR-TAF:

METAR-TAF

机场 :

奥尔巴尼, 紐約州, 美国

纬度: 42-44-53N, 经度: 073-48-06W, 海拔: 87米

当前天气观测

该预报发布于31分钟前的19:51 UTC
风速20节,风向西转西北,有时为31节阵风
温度 2°C
湿度 35%
气压 1025 hPa
能見度: 16.1公里
散云层高于6000英尺

METAR: KALB 191951Z 29020G31KT 10SM SCT060 02/M12 A3026 RMK AO2 PK WND 30035/1914 SLP249 T00221122

时间: 15:22 (20:22 UTC)

预报

该预报发布于1小时和48分钟前的18:34 UTC
预报有效从19日的 19点(UTC)到 20日的 18点(UTC)
风速17节,风向西转西北,有时为28节阵风
能見度: 10公里
散云层高于6000英尺
从 19日的 2300点(UTC)
风速13节,风向西转西北,有时为22节阵风
能見度: 10公里
少量云层高于5000英尺
从 20日的 0500点(UTC)
风速6节,风向西转西北
能見度: 10公里
多云层高于5000英尺
附近有阵雨
几率 30%
从 20日的 07点(UTC)到 20日的 13点(UTC)
能見度: 4.8公里
多云层高于3000英尺
阴天层高于5000英尺
小阵雪
从 20日的 1500点(UTC)
风速10节,风向西北,有时为18节阵风
能見度: 10公里
多云层高于6000英尺
附近有阵雨

TAF: KALB 191834Z 1919/2018 30017G28KT P6SM SCT060 FM192300 30013G22KT P6SM FEW050 FM200500 30006KT P6SM VCSH BKN050 PROB30 2007/2013 3SM -SHSN BKN030 OVC050 FM201500 31010G18KT P6SM VCSH BKN060

超过4000个机场的气象观测和天气预报(METAR&TAF报告)。

可查询的气象台以黄色和红色小点在地图上表示。

将鼠标移到小点上方,可查看气象台名称。

然后点击查看天气观测和预报。

如需切换地图:点击带黑十字的绿色按钮放大地图;点击带横线的绿色按钮缩小地图;或者点击绿色箭头查看邻近地区的地图。


METAR-TAF: